Rosedale, Washington
Current Conditions -  °F | °C
As of 11:53 AM on Friday 28 Nov 2014 (Local Time) from KTIW Reporting Station
Moderate Rain Moderate Rain  
Wind Chill: 38°   Ceiling: 500
Heat Index: 44°   Visibility: 2mi
Dew Point: 42°   Wind: 12mph
Humidity: 93%   Direction: 20°NNE
Pressure: 29.48"   Gusts: 22mph
Location:  47.2986°N, 122.616°W
Report Text: KTIW 281953Z 02010G19KT 2SM RA BR BKN005 BKN015 OVC019 07/06 A2948 RMK AO2 WSHFT 1908 SLP982 P0021 T00670056
Loading
Personal Weather Stations






























Interactive Weather Map New forecast layout! Learn more

10-Day Weather Forecast

Advertisements
Track Severe Weather on mobile